sensor_id;sensor_type;location;lat;lon;timestamp;pressure;altitude;pressure_sealevel;temperature;humidity
84143;BME280;74260;50.772;7.730;2023-12-20T00:00:21;98670.19;;;6.44;100.00
84143;BME280;74260;50.772;7.730;2023-12-20T00:00:54;98672.94;;;6.45;100.00
84143;BME280;74260;50.772;7.730;2023-12-20T00:01:24;98681.34;;;6.44;100.00
84143;BME280;74260;50.772;7.730;2023-12-20T00:01:55;98674.44;;;6.43;100.00
84143;BME280;74260;50.772;7.730;2023-12-20T00:02:25;98668.38;;;6.51;100.00
84143;BME280;74260;50.772;7.730;2023-12-20T00:02:55;98664.34;;;6.45;100.00
84143;BME280;74260;50.772;7.730;2023-12-20T00:03:28;98672.16;;;6.46;100.00
84143;BME280;74260;50.772;7.730;2023-12-20T00:03:58;98671.38;;;6.47;100.00
84143;BME280;74260;50.772;7.730;2023-12-20T00:04:29;98666.28;;;6.47;100.00
84143;BME280;74260;50.772;7.730;2023-12-20T00:05:00;98668.97;;;6.40;100.00
84143;BME280;74260;50.772;7.730;2023-12-20T00:05:31;98667.19;;;6.39;100.00
84143;BME280;74260;50.772;7.730;2023-12-20T00:06:06;98673.22;;;6.48;100.00
84143;BME280;74260;50.772;7.730;2023-12-20T00:06:36;98669.28;;;6.52;100.00
84143;BME280;74260;50.772;7.730;2023-12-20T00:07:07;98675.16;;;6.51;100.00
84143;BME280;74260;50.772;7.730;2023-12-20T00:07:37;98673.50;;;6.51;100.00
84143;BME280;74260;50.772;7.730;2023-12-20T00:08:07;98665.81;;;6.51;100.00
84143;BME280;74260;50.772;7.730;2023-12-20T00:08:38;98669.88;;;6.49;100.00
84143;BME280;74260;50.772;7.730;2023-12-20T00:09:08;98668.09;;;6.48;100.00
84143;BME280;74260;50.772;7.730;2023-12-20T00:09:39;98670.94;;;6.51;100.00
84143;BME280;74260;50.772;7.730;2023-12-20T00:10:10;98670.81;;;6.50;100.00
84143;BME280;74260;50.772;7.730;2023-12-20T00:10:40;98676.84;;;6.50;100.00
84143;BME280;74260;50.772;7.730;2023-12-20T00:11:10;98672.44;;;6.49;100.00
84143;BME280;74260;50.772;7.730;2023-12-20T00:11:41;98672.59;;;6.51;100.00
84143;BME280;74260;50.772;7.730;2023-12-20T00:12:15;98669.16;;;6.50;100.00
84143;BME280;74260;50.772;7.730;2023-12-20T00:12:46;98676.06;;;6.51;100.00
84143;BME280;74260;50.772;7.730;2023-12-20T00:13:17;98664.47;;;6.46;100.00
84143;BME280;74260;50.772;7.730;2023-12-20T00:13:48;98670.50;;;6.47;100.00
84143;BME280;74260;50.772;7.730;2023-12-20T00:14:19;98662.69;;;6.45;100.00
84143;BME280;74260;50.772;7.730;2023-12-20T00:14:51;98664.19;;;6.43;100.00
84143;BME280;74260;50.772;7.730;2023-12-20T00:15:23;98663.41;;;6.44;100.00
84143;BME280;74260;50.772;7.730;2023-12-20T00:15:55;98659.94;;;6.44;100.00
84143;BME280;74260;50.772;7.730;2023-12-20T00:16:25;98659.06;;;6.43;100.00
84143;BME280;74260;50.772;7.730;2023-12-20T00:16:56;98667.47;;;6.42;100.00
84143;BME280;74260;50.772;7.730;2023-12-20T00:17:26;98662.38;;;6.42;100.00
84143;BME280;74260;50.772;7.730;2023-12-20T00:17:57;98660.88;;;6.44;100.00
84143;BME280;74260;50.772;7.730;2023-12-20T00:18:30;98662.97;;;6.48;100.00
84143;BME280;74260;50.772;7.730;2023-12-20T00:19:01;98663.13;;;6.50;100.00
84143;BME280;74260;50.772;7.730;2023-12-20T00:19:32;98661.00;;;6.46;100.00
84143;BME280;74260;50.772;7.730;2023-12-20T00:20:02;98661.34;;;6.49;100.00
84143;BME280;74260;50.772;7.730;2023-12-20T00:20:33;98657.84;;;6.48;100.00
84143;BME280;74260;50.772;7.730;2023-12-20T00:21:06;98662.97;;;6.48;100.00
84143;BME280;74260;50.772;7.730;2023-12-20T00:21:38;98662.97;;;6.48;100.00
84143;BME280;74260;50.772;7.730;2023-12-20T00:22:08;98654.25;;;6.46;100.00
84143;BME280;74260;50.772;7.730;2023-12-20T00:22:40;98659.34;;;6.46;100.00
84143;BME280;74260;50.772;7.730;2023-12-20T00:23:10;98662.22;;;6.49;100.00
84143;BME280;74260;50.772;7.730;2023-12-20T00:23:40;98661.63;;;6.52;100.00
84143;BME280;74260;50.772;7.730;2023-12-20T00:24:12;98663.88;;;6.49;100.00
84143;BME280;74260;50.772;7.730;2023-12-20T00:24:45;98662.06;;;6.48;100.00
84143;BME280;74260;50.772;7.730;2023-12-20T00:25:15;98664.47;;;6.46;100.00
84143;BME280;74260;50.772;7.730;2023-12-20T00:25:47;98657.56;;;6.45;100.00
84143;BME280;74260;50.772;7.730;2023-12-20T00:26:20;98659.34;;;6.46;100.00
84143;BME280;74260;50.772;7.730;2023-12-20T00:26:50;98656.03;;;6.47;100.00
84143;BME280;74260;50.772;7.730;2023-12-20T00:27:23;98651.53;;;6.45;100.00
84143;BME280;74260;50.772;7.730;2023-12-20T00:27:54;98649.56;;;6.42;100.00
84143;BME280;74260;50.772;7.730;2023-12-20T00:28:26;98646.56;;;6.46;100.00
84143;BME280;74260;50.772;7.730;2023-12-20T00:28:57;98648.34;;;6.47;100.00
84143;BME280;74260;50.772;7.730;2023-12-20T00:29:28;98647.91;;;6.51;100.00
84143;BME280;74260;50.772;7.730;2023-12-20T00:29:58;98645.47;;;6.61;100.00
84143;BME280;74260;50.772;7.730;2023-12-20T00:30:30;98636.28;;;6.63;100.00
84143;BME280;74260;50.772;7.730;2023-12-20T00:31:02;98643.53;;;6.67;100.00
84143;BME280;74260;50.772;7.730;2023-12-20T00:31:32;98651.50;;;6.62;100.00
84143;BME280;74260;50.772;7.730;2023-12-20T00:32:03;98654.81;;;6.69;100.00
84143;BME280;74260;50.772;7.730;2023-12-20T00:32:35;98656.59;;;6.70;100.00
84143;BME280;74260;50.772;7.730;2023-12-20T00:33:08;98660.53;;;6.67;100.00
84143;BME280;74260;50.772;7.730;2023-12-20T00:33:39;98659.94;;;6.69;100.00
84143;BME280;74260;50.772;7.730;2023-12-20T00:34:13;98654.50;;;6.66;100.00
84143;BME280;74260;50.772;7.730;2023-12-20T00:34:43;98656.47;;;6.69;100.00
84143;BME280;74260;50.772;7.730;2023-12-20T00:35:15;98656.03;;;6.73;100.00
84143;BME280;74260;50.772;7.730;2023-12-20T00:35:46;98660.09;;;6.71;100.00
84143;BME280;74260;50.772;7.730;2023-12-20T00:36:17;98659.94;;;6.69;100.00
84143;BME280;74260;50.772;7.730;2023-12-20T00:36:47;98656.19;;;6.66;100.00
84143;BME280;74260;50.772;7.730;2023-12-20T00:37:19;98653.31;;;6.63;100.00
84143;BME280;74260;50.772;7.730;2023-12-20T00:37:50;98652.88;;;6.58;100.00
84143;BME280;74260;50.772;7.730;2023-12-20T00:38:21;98653.63;;;6.57;100.00
84143;BME280;74260;50.772;7.730;2023-12-20T00:38:53;98660.41;;;6.57;100.00
84143;BME280;74260;50.772;7.730;2023-12-20T00:39:26;98660.84;;;6.53;100.00
84143;BME280;74260;50.772;7.730;2023-12-20T00:39:56;98658.91;;;6.50;100.00
84143;BME280;74260;50.772;7.730;2023-12-20T00:40:27;98658.16;;;6.51;100.00
84143;BME280;74260;50.772;7.730;2023-12-20T00:40:57;98660.56;;;6.50;100.00
84143;BME280;74260;50.772;7.730;2023-12-20T00:41:28;98662.22;;;6.49;100.00
84143;BME280;74260;50.772;7.730;2023-12-20T00:41:58;98659.66;;;6.49;100.00
84143;BME280;74260;50.772;7.730;2023-12-20T00:42:29;98652.59;;;6.55;100.00
84143;BME280;74260;50.772;7.730;2023-12-20T00:42:59;98655.59;;;6.51;100.00
84143;BME280;74260;50.772;7.730;2023-12-20T00:43:29;98653.03;;;6.51;100.00
84143;BME280;74260;50.772;7.730;2023-12-20T00:44:00;98652.75;;;6.48;100.00
84143;BME280;74260;50.772;7.730;2023-12-20T00:44:35;98660.28;;;6.47;100.00
84143;BME280;74260;50.772;7.730;2023-12-20T00:45:06;98655.75;;;6.44;100.00
84143;BME280;74260;50.772;7.730;2023-12-20T00:45:37;98651.06;;;6.40;100.00
84143;BME280;74260;50.772;7.730;2023-12-20T00:46:07;98651.97;;;6.41;100.00
84143;BME280;74260;50.772;7.730;2023-12-20T00:46:38;98654.69;;;6.42;100.00
84143;BME280;74260;50.772;7.730;2023-12-20T00:47:08;98652.91;;;6.41;100.00
84143;BME280;74260;50.772;7.730;2023-12-20T00:47:41;98653.94;;;6.43;100.00
84143;BME280;74260;50.772;7.730;2023-12-20T00:48:13;98652.13;;;6.42;100.00
84143;BME280;74260;50.772;7.730;2023-12-20T00:48:46;98649.41;;;6.41;100.00
84143;BME280;74260;50.772;7.730;2023-12-20T00:49:17;98650.34;;;6.41;100.00
84143;BME280;74260;50.772;7.730;2023-12-20T00:49:48;98647.47;;;6.47;100.00
84143;BME280;74260;50.772;7.730;2023-12-20T00:50:19;98645.19;;;6.50;100.00
84143;BME280;74260;50.772;7.730;2023-12-20T00:50:52;98651.81;;;6.56;100.00
84143;BME280;74260;50.772;7.730;2023-12-20T00:51:23;98646.25;;;6.60;100.00
84143;BME280;74260;50.772;7.730;2023-12-20T00:51:54;98645.19;;;6.58;100.00
84143;BME280;74260;50.772;7.730;2023-12-20T00:52:24;98649.25;;;6.56;100.00
84143;BME280;74260;50.772;7.730;2023-12-20T00:52:55;98646.25;;;6.52;100.00
84143;BME280;74260;50.772;7.730;2023-12-20T00:53:26;98652.13;;;6.51;100.00
84143;BME280;74260;50.772;7.730;2023-12-20T00:53:56;98644.91;;;6.55;100.00
84143;BME280;74260;50.772;7.730;2023-12-20T00:54:28;98652.25;;;6.52;100.00
84143;BME280;74260;50.772;7.730;2023-12-20T00:55:04;98647.91;;;6.51;100.00
84143;BME280;74260;50.772;7.730;2023-12-20T00:55:34;98650.47;;;6.51;100.00
84143;BME280;74260;50.772;7.730;2023-12-20T00:56:06;98654.81;;;6.52;100.00
84143;BME280;74260;50.772;7.730;2023-12-20T00:56:37;98651.53;;;6.53;100.00
84143;BME280;74260;50.772;7.730;2023-12-20T00:57:08;98658.44;;;6.54;100.00
84143;BME280;74260;50.772;7.730;2023-12-20T00:57:39;98654.22;;;6.55;100.00
84143;BME280;74260;50.772;7.730;2023-12-20T00:58:10;98654.81;;;6.52;100.00
84143;BME280;74260;50.772;7.730;2023-12-20T00:58:40;98642.66;;;6.50;100.00
84143;BME280;74260;50.772;7.730;2023-12-20T00:59:12;98647.91;;;6.51;100.00
84143;BME280;74260;50.772;7.730;2023-12-20T00:59:42;98649.69;;;6.52;100.00
84143;BME280;74260;50.772;7.730;2023-12-20T01:00:15;98651.38;;;6.60;100.00
84143;BME280;74260;50.772;7.730;2023-12-20T01:00:46;98642.91;;;6.61;100.00
84143;BME280;74260;50.772;7.730;2023-12-20T01:01:17;98649.09;;;6.63;100.00
84143;BME280;74260;50.772;7.730;2023-12-20T01:01:50;98648.94;;;6.70;100.00
84143;BME280;74260;50.772;7.730;2023-12-20T01:02:21;98645.16;;;6.67;100.00
84143;BME280;74260;50.772;7.730;2023-12-20T01:02:51;98648.81;;;6.60;100.00
84143;BME280;74260;50.772;7.730;2023-12-20T01:03:22;98636.72;;;6.68;100.00
84143;BME280;74260;50.772;7.730;2023-12-20T01:03:53;98652.56;;;6.64;100.00
84143;BME280;74260;50.772;7.730;2023-12-20T01:04:23;98650.59;;;6.61;100.00
84143;BME280;74260;50.772;7.730;2023-12-20T01:04:54;98645.63;;;6.63;100.00
84143;BME280;74260;50.772;7.730;2023-12-20T01:05:25;98652.56;;;6.64;100.00
84143;BME280;74260;50.772;7.730;2023-12-20T01:05:56;98646.38;;;6.70;100.00
84143;BME280;74260;50.772;7.730;2023-12-20T01:06:26;98651.03;;;6.74;100.00
84143;BME280;74260;50.772;7.730;2023-12-20T01:06:57;98650.28;;;6.75;100.00
84143;BME280;74260;50.772;7.730;2023-12-20T01:07:28;98651.63;;;6.72;100.00
84143;BME280;74260;50.772;7.730;2023-12-20T01:08:00;98646.97;;;6.68;100.00
84143;BME280;74260;50.772;7.730;2023-12-20T01:08:33;98654.81;;;6.69;100.00
84143;BME280;74260;50.772;7.730;2023-12-20T01:09:05;98649.69;;;6.69;100.00
84143;BME280;74260;50.772;7.730;2023-12-20T01:09:36;98656.31;;;6.67;100.00
84143;BME280;74260;50.772;7.730;2023-12-20T01:10:07;98653.00;;;6.68;100.00
84143;BME280;74260;50.772;7.730;2023-12-20T01:10:38;98641.56;;;6.65;100.00
84143;BME280;74260;50.772;7.730;2023-12-20T01:11:08;98652.41;;;6.71;100.00
84143;BME280;74260;50.772;7.730;2023-12-20T01:11:39;98646.66;;;6.73;100.00
84143;BME280;74260;50.772;7.730;2023-12-20T01:12:10;98654.66;;;6.76;100.00
84143;BME280;74260;50.772;7.730;2023-12-20T01:12:43;98650.00;;;6.72;100.00
84143;BME280;74260;50.772;7.730;2023-12-20T01:13:13;98649.69;;;6.78;100.00
84143;BME280;74260;50.772;7.730;2023-12-20T01:13:44;98644.25;;;6.75;100.00
84143;BME280;74260;50.772;7.730;2023-12-20T01:14:15;98648.47;;;6.74;100.00
84143;BME280;74260;50.772;7.730;2023-12-20T01:14:45;98643.19;;;6.81;100.00
84143;BME280;74260;50.772;7.730;2023-12-20T01:15:16;98651.75;;;6.82;100.00
84143;BME280;74260;50.772;7.730;2023-12-20T01:15:47;98642.13;;;6.79;100.00
84143;BME280;74260;50.772;7.730;2023-12-20T01:16:18;98642.13;;;6.79;100.00
84143;BME280;74260;50.772;7.730;2023-12-20T01:16:50;98647.25;;;6.79;100.00
84143;BME280;74260;50.772;7.730;2023-12-20T01:17:20;98643.75;;;6.87;100.00
84143;BME280;74260;50.772;7.730;2023-12-20T01:17:51;98649.91;;;6.98;100.00
84143;BME280;74260;50.772;7.730;2023-12-20T01:18:22;98638.19;;;6.91;100.00
84143;BME280;74260;50.772;7.730;2023-12-20T01:18:52;98636.34;;;6.90;100.00
84143;BME280;74260;50.772;7.730;2023-12-20T01:19:22;98628.09;;;6.93;100.00
84143;BME280;74260;50.772;7.730;2023-12-20T01:19:54;98638.47;;;6.94;100.00
84143;BME280;74260;50.772;7.730;2023-12-20T01:20:24;98633.34;;;6.94;100.00
84143;BME280;74260;50.772;7.730;2023-12-20T01:20:56;98639.25;;;6.93;100.00
84143;BME280;74260;50.772;7.730;2023-12-20T01:21:26;98642.38;;;6.99;100.00
84143;BME280;74260;50.772;7.730;2023-12-20T01:22:02;98652.31;;;6.96;100.00
84143;BME280;74260;50.772;7.730;2023-12-20T01:22:32;98643.00;;;6.97;100.00
84143;BME280;74260;50.772;7.730;2023-12-20T01:23:02;98650.50;;;6.95;100.00
84143;BME280;74260;50.772;7.730;2023-12-20T01:23:34;98645.38;;;6.95;100.00
84143;BME280;74260;50.772;7.730;2023-12-20T01:24:05;98646.56;;;6.99;100.00
84143;BME280;74260;50.772;7.730;2023-12-20T01:24:36;98640.53;;;7.07;100.00
84143;BME280;74260;50.772;7.730;2023-12-20T01:25:08;98646.53;;;7.07;100.00
84143;BME280;74260;50.772;7.730;2023-12-20T01:25:39;98643.97;;;7.07;100.00
84143;BME280;74260;50.772;7.730;2023-12-20T01:26:10;98647.59;;;7.10;100.00
84143;BME280;74260;50.772;7.730;2023-12-20T01:26:41;98648.50;;;7.10;100.00
84143;BME280;74260;50.772;7.730;2023-12-20T01:27:12;98646.84;;;7.11;100.00
84143;BME280;74260;50.772;7.730;2023-12-20T01:27:44;98636.59;;;7.11;100.00
84143;BME280;74260;50.772;7.730;2023-12-20T01:28:14;98642.94;;;7.14;100.00
84143;BME280;74260;50.772;7.730;2023-12-20T01:28:45;98643.97;;;7.07;100.00
84143;BME280;74260;50.772;7.730;2023-12-20T01:29:16;98638.13;;;7.09;100.00
84143;BME280;74260;50.772;7.730;2023-12-20T01:29:47;98647.00;;;7.12;100.00
84143;BME280;74260;50.772;7.730;2023-12-20T01:30:18;98644.72;;;7.15;100.00
84143;BME280;74260;50.772;7.730;2023-12-20T01:30:48;98648.47;;;7.19;100.00
84143;BME280;74260;50.772;7.730;2023-12-20T01:31:19;98656.44;;;7.22;100.00
84143;BME280;74260;50.772;7.730;2023-12-20T01:31:50;98645.00;;;7.18;100.00
84143;BME280;74260;50.772;7.730;2023-12-20T01:32:21;98652.81;;;7.20;100.00
84143;BME280;74260;50.772;7.730;2023-12-20T01:32:51;98643.81;;;7.15;100.00
84143;BME280;74260;50.772;7.730;2023-12-20T01:33:21;98645.50;;;7.14;100.00
84143;BME280;74260;50.772;7.730;2023-12-20T01:33:53;98646.38;;;7.15;100.00
84143;BME280;74260;50.772;7.730;2023-12-20T01:34:26;98651.94;;;7.19;100.00
84143;BME280;74260;50.772;7.730;2023-12-20T01:34:57;98650.47;;;7.13;100.00
84143;BME280;74260;50.772;7.730;2023-12-20T01:35:27;98646.84;;;7.11;100.00
84143;BME280;74260;50.772;7.730;2023-12-20T01:35:58;98648.66;;;7.12;100.00
84143;BME280;74260;50.772;7.730;2023-12-20T01:36:29;98655.88;;;7.16;100.00
84143;BME280;74260;50.772;7.730;2023-12-20T01:37:00;98652.53;;;7.17;100.00
84143;BME280;74260;50.772;7.730;2023-12-20T01:37:30;98651.66;;;7.16;100.00
84143;BME280;74260;50.772;7.730;2023-12-20T01:38:02;98655.56;;;7.21;100.00
84143;BME280;74260;50.772;7.730;2023-12-20T01:38:32;98661.56;;;7.22;100.00
84143;BME280;74260;50.772;7.730;2023-12-20T01:39:03;98652.69;;;7.18;100.00
84143;BME280;74260;50.772;7.730;2023-12-20T01:39:35;98658.72;;;7.19;100.00
84143;BME280;74260;50.772;7.730;2023-12-20T01:40:06;98645.44;;;7.23;100.00
84143;BME280;74260;50.772;7.730;2023-12-20T01:40:37;98654.38;;;7.18;100.00
84143;BME280;74260;50.772;7.730;2023-12-20T01:41:09;98651.50;;;7.15;100.00
84143;BME280;74260;50.772;7.730;2023-12-20T01:41:40;98651.34;;;7.13;100.00
84143;BME280;74260;50.772;7.730;2023-12-20T01:42:10;98650.47;;;7.13;100.00
84143;BME280;74260;50.772;7.730;2023-12-20T01:42:41;98647.91;;;7.13;100.00
84143;BME280;74260;50.772;7.730;2023-12-20T01:43:13;98645.34;;;7.13;100.00
84143;BME280;74260;50.772;7.730;2023-12-20T01:43:44;98653.78;;;7.12;100.00
84143;BME280;74260;50.772;7.730;2023-12-20T01:44:15;98649.84;;;7.15;100.00
84143;BME280;74260;50.772;7.730;2023-12-20T01:44:47;98644.16;;;7.09;100.00
84143;BME280;74260;50.772;7.730;2023-12-20T01:45:18;98658.91;;;7.12;100.00
84143;BME280;74260;50.772;7.730;2023-12-20T01:45:49;98655.59;;;7.13;100.00
84143;BME280;74260;50.772;7.730;2023-12-20T01:46:20;98653.03;;;7.13;100.00
84143;BME280;74260;50.772;7.730;2023-12-20T01:46:51;98670.97;;;7.13;100.00
84143;BME280;74260;50.772;7.730;2023-12-20T01:47:22;98674.56;;;7.15;100.00
84143;BME280;74260;50.772;7.730;2023-12-20T01:47:55;98673.34;;;7.11;100.00
84143;BME280;74260;50.772;7.730;2023-12-20T01:48:26;98679.69;;;7.15;100.00
84143;BME280;74260;50.772;7.730;2023-12-20T01:48:58;98684.53;;;7.12;100.00
84143;BME280;74260;50.772;7.730;2023-12-20T01:49:28;98675.19;;;7.12;100.00
84143;BME280;74260;50.772;7.730;2023-12-20T01:49:59;98680.59;;;7.15;100.00
84143;BME280;74260;50.772;7.730;2023-12-20T01:50:33;98690.84;;;7.15;100.00
84143;BME280;74260;50.772;7.730;2023-12-20T01:51:05;98677.88;;;7.14;100.00
84143;BME280;74260;50.772;7.730;2023-12-20T01:51:37;98684.25;;;7.09;100.00
84143;BME280;74260;50.772;7.730;2023-12-20T01:52:10;98677.00;;;7.04;99.97
84143;BME280;74260;50.772;7.730;2023-12-20T01:52:43;98674.63;;;6.97;99.45
84143;BME280;74260;50.772;7.730;2023-12-20T01:53:14;98686.38;;;6.95;99.49
84143;BME280;74260;50.772;7.730;2023-12-20T01:53:46;98680.97;;;6.92;98.92
84143;BME280;74260;50.772;7.730;2023-12-20T01:54:19;98678.41;;;6.92;99.70
84143;BME280;74260;50.772;7.730;2023-12-20T01:54:50;98675.56;;;6.89;99.49
84143;BME280;74260;50.772;7.730;2023-12-20T01:55:21;98675.56;;;6.89;99.48
84143;BME280;74260;50.772;7.730;2023-12-20T01:55:54;98685.78;;;6.89;99.83
84143;BME280;74260;50.772;7.730;2023-12-20T01:56:25;98683.38;;;6.91;99.31
84143;BME280;74260;50.772;7.730;2023-12-20T01:56:58;98684.75;;;6.87;99.21
84143;BME280;74260;50.772;7.730;2023-12-20T01:57:30;98677.34;;;6.90;98.93
84143;BME280;74260;50.772;7.730;2023-12-20T01:58:00;98680.66;;;6.89;98.75
84143;BME280;74260;50.772;7.730;2023-12-20T01:58:34;98693.34;;;6.88;99.06
84143;BME280;74260;50.772;7.730;2023-12-20T01:59:05;98691.84;;;6.90;99.02
84143;BME280;74260;50.772;7.730;2023-12-20T01:59:40;98700.56;;;6.83;99.39
84143;BME280;74260;50.772;7.730;2023-12-20T02:00:11;98697.72;;;6.80;99.08
84143;BME280;74260;50.772;7.730;2023-12-20T02:00:42;98700.75;;;6.76;99.34
84143;BME280;74260;50.772;7.730;2023-12-20T02:01:15;98696.06;;;6.72;99.40
84143;BME280;74260;50.772;7.730;2023-12-20T02:01:45;98702.69;;;6.70;99.09
84143;BME280;74260;50.772;7.730;2023-12-20T02:02:16;98697.72;;;6.72;99.10
84143;BME280;74260;50.772;7.730;2023-12-20T02:02:47;98696.81;;;6.71;99.47
84143;BME280;74260;50.772;7.730;2023-12-20T02:03:20;98697.88;;;6.73;99.01
84143;BME280;74260;50.772;7.730;2023-12-20T02:03:51;98694.84;;;6.77;98.69
84143;BME280;74260;50.772;7.730;2023-12-20T02:04:22;98701.47;;;6.75;98.90
84143;BME280;74260;50.772;7.730;2023-12-20T02:04:54;98696.38;;;6.75;98.69
84143;BME280;74260;50.772;7.730;2023-12-20T02:05:25;98700.91;;;6.78;98.89
84143;BME280;74260;50.772;7.730;2023-12-20T02:05:56;98697.88;;;6.73;99.46
84143;BME280;74260;50.772;7.730;2023-12-20T02:06:29;98705.09;;;6.77;98.84
84143;BME280;74260;50.772;7.730;2023-12-20T02:07:02;98708.09;;;6.73;98.68
84143;BME280;74260;50.772;7.730;2023-12-20T02:07:33;98707.06;;;6.71;98.55
84143;BME280;74260;50.772;7.730;2023-12-20T02:08:05;98709.31;;;6.68;99.02
84143;BME280;74260;50.772;7.730;2023-12-20T02:08:36;98710.22;;;6.69;98.74
84143;BME280;74260;50.772;7.730;2023-12-20T02:09:07;98715.78;;;6.73;99.06
84143;BME280;74260;50.772;7.730;2023-12-20T02:09:38;98711.16;;;6.69;98.84
84143;BME280;74260;50.772;7.730;2023-12-20T02:10:09;98711.75;;;6.67;98.93
84143;BME280;74260;50.772;7.730;2023-12-20T02:10:40;98707.53;;;6.67;99.19
84143;BME280;74260;50.772;7.730;2023-12-20T02:11:11;98710.22;;;6.69;99.11
84143;BME280;74260;50.772;7.730;2023-12-20T02:11:43;98712.94;;;6.70;98.77
84143;BME280;74260;50.772;7.730;2023-12-20T02:12:13;98707.38;;;6.74;98.86
84143;BME280;74260;50.772;7.730;2023-12-20T02:12:43;98713.84;;;6.71;99.02
84143;BME280;74260;50.772;7.730;2023-12-20T02:13:14;98712.78;;;6.69;98.82
84143;BME280;74260;50.772;7.730;2023-12-20T02:13:45;98712.34;;;6.73;98.83
84143;BME280;74260;50.772;7.730;2023-12-20T02:14:16;98709.94;;;6.74;98.67
84143;BME280;74260;50.772;7.730;2023-12-20T02:14:48;98714.44;;;6.68;99.09
84143;BME280;74260;50.772;7.730;2023-12-20T02:15:19;98707.38;;;6.66;98.67
84143;BME280;74260;50.772;7.730;2023-12-20T02:15:50;98709.75;;;6.64;98.57
84143;BME280;74260;50.772;7.730;2023-12-20T02:16:21;98716.72;;;6.65;99.21
84143;BME280;74260;50.772;7.730;2023-12-20T02:16:52;98715.22;;;6.67;99.19
84143;BME280;74260;50.772;7.730;2023-12-20T02:17:23;98702.41;;;6.67;98.58
84143;BME280;74260;50.772;7.730;2023-12-20T02:17:54;98707.06;;;6.63;99.12
84143;BME280;74260;50.772;7.730;2023-12-20T02:18:26;98713.25;;;6.65;99.55
84143;BME280;74260;50.772;7.730;2023-12-20T02:18:56;98708.41;;;6.59;99.82
84143;BME280;74260;50.772;7.730;2023-12-20T02:19:27;98720.78;;;6.55;99.70
84143;BME280;74260;50.772;7.730;2023-12-20T02:19:58;98718.38;;;6.56;99.35
84143;BME280;74260;50.772;7.730;2023-12-20T02:20:30;98720.19;;;6.57;99.20
84143;BME280;74260;50.772;7.730;2023-12-20T02:21:00;98716.28;;;6.61;98.99
84143;BME280;74260;50.772;7.730;2023-12-20T02:21:32;98719.28;;;6.57;99.47
84143;BME280;74260;50.772;7.730;2023-12-20T02:22:10;98726.66;;;6.62;99.34
84143;BME280;74260;50.772;7.730;2023-12-20T02:22:42;98719.88;;;6.63;99.68
84143;BME280;74260;50.772;7.730;2023-12-20T02:23:12;98723.50;;;6.56;99.89
84143;BME280;74260;50.772;7.730;2023-12-20T02:23:43;98722.44;;;6.54;99.44
84143;BME280;74260;50.772;7.730;2023-12-20T02:24:14;98712.03;;;6.53;99.88
84143;BME280;74260;50.772;7.730;2023-12-20T02:24:44;98724.13;;;6.54;99.68
84143;BME280;74260;50.772;7.730;2023-12-20T02:25:15;98711.75;;;6.58;98.47
84143;BME280;74260;50.772;7.730;2023-12-20T02:25:46;98714.44;;;6.60;98.82
84143;BME280;74260;50.772;7.730;2023-12-20T02:26:17;98710.53;;;6.63;98.85
84143;BME280;74260;50.772;7.730;2023-12-20T02:26:49;98708.75;;;6.62;98.46
84143;BME280;74260;50.772;7.730;2023-12-20T02:27:19;98712.31;;;6.64;98.52
84143;BME280;74260;50.772;7.730;2023-12-20T02:27:50;98712.31;;;6.64;98.59
84143;BME280;74260;50.772;7.730;2023-12-20T02:28:22;98707.84;;;6.62;98.74
84143;BME280;74260;50.772;7.730;2023-12-20T02:28:53;98699.72;;;6.57;99.16
84143;BME280;74260;50.772;7.730;2023-12-20T02:29:25;98717.63;;;6.57;98.88
84143;BME280;74260;50.772;7.730;2023-12-20T02:29:57;98704.38;;;6.53;99.62
84143;BME280;74260;50.772;7.730;2023-12-20T02:30:30;98708.44;;;6.51;99.78
84143;BME280;74260;50.772;7.730;2023-12-20T02:31:01;98710.25;;;6.52;100.00
84143;BME280;74260;50.772;7.730;2023-12-20T02:31:33;98716.25;;;6.52;99.68
84143;BME280;74260;50.772;7.730;2023-12-20T02:32:04;98713.69;;;6.52;99.44
84143;BME280;74260;50.772;7.730;2023-12-20T02:32:34;98713.41;;;6.49;99.33
84143;BME280;74260;50.772;7.730;2023-12-20T02:33:07;98718.22;;;6.55;99.49
84143;BME280;74260;50.772;7.730;2023-12-20T02:33:40;98716.44;;;6.54;99.12
84143;BME280;74260;50.772;7.730;2023-12-20T02:34:12;98718.06;;;6.53;99.36
84143;BME280;74260;50.772;7.730;2023-12-20T02:34:42;98712.66;;;6.50;99.64
84143;BME280;74260;50.772;7.730;2023-12-20T02:35:14;98711.75;;;6.50;99.35
84143;BME280;74260;50.772;7.730;2023-12-20T02:35:45;98713.09;;;6.46;99.34
84143;BME280;74260;50.772;7.730;2023-12-20T02:36:16;98702.72;;;6.45;99.29
84143;BME280;74260;50.772;7.730;2023-12-20T02:36:47;98714.16;;;6.48;99.52
84143;BME280;74260;50.772;7.730;2023-12-20T02:37:19;98708.13;;;6.48;99.19
84143;BME280;74260;50.772;7.730;2023-12-20T02:37:50;98706.50;;;6.48;99.32
84143;BME280;74260;50.772;7.730;2023-12-20T02:38:21;98707.69;;;6.43;99.62
84143;BME280;74260;50.772;7.730;2023-12-20T02:38:52;98709.34;;;6.43;99.56
84143;BME280;74260;50.772;7.730;2023-12-20T02:39:24;98708.00;;;6.46;99.50
84143;BME280;74260;50.772;7.730;2023-12-20T02:39:54;98702.56;;;6.43;99.52
84143;BME280;74260;50.772;7.730;2023-12-20T02:40:26;98709.06;;;6.48;99.61
84143;BME280;74260;50.772;7.730;2023-12-20T02:40:56;98712.06;;;6.44;100.00
84143;BME280;74260;50.772;7.730;2023-12-20T02:41:28;98704.66;;;6.47;100.00
84143;BME280;74260;50.772;7.730;2023-12-20T02:41:58;98703.16;;;6.49;99.59
84143;BME280;74260;50.772;7.730;2023-12-20T02:42:29;98713.25;;;6.48;99.63
84143;BME280;74260;50.772;7.730;2023-12-20T02:43:00;98703.31;;;6.51;99.71
84143;BME280;74260;50.772;7.730;2023-12-20T02:43:32;98711.75;;;6.50;99.38
84143;BME280;74260;50.772;7.730;2023-12-20T02:44:03;98709.34;;;6.51;99.17
84143;BME280;74260;50.772;7.730;2023-12-20T02:44:35;98704.22;;;6.60;99.01
84143;BME280;74260;50.772;7.730;2023-12-20T02:45:07;98705.28;;;6.53;99.01
84143;BME280;74260;50.772;7.730;2023-12-20T02:45:38;98716.25;;;6.52;98.78
84143;BME280;74260;50.772;7.730;2023-12-20T02:46:10;98705.13;;;6.60;98.94